Time,TemperatureF,DewpointF,PressureIn,WindDirection,WindDirectionDegrees,WindSpeedMPH,WindSpeedGustMPH,Humidity,HourlyPrecipIn,Conditions,Clouds,dailyrainin,SoftwareType,DateUTC
2017-05-25 00:02:00,58.3,55.9,29.52,NNE,20,4.0,14.0,92,0.00,,,0.04,meteohub,2017-05-25 04:02:00,
2017-05-25 00:07:00,58.1,55.8,29.52,ENE,63,6.0,14.0,92,0.00,,,0.04,meteohub,2017-05-25 04:07:00,
2017-05-25 00:12:00,57.9,55.6,29.52,ENE,63,4.0,14.0,92,0.00,,,0.04,meteohub,2017-05-25 04:12:00,
2017-05-25 00:18:00,57.9,55.6,29.52,NE,41,7.0,14.0,92,0.00,,,0.04,meteohub,2017-05-25 04:18:00,
2017-05-25 00:23:00,57.7,55.4,29.52,North,1,7.0,14.0,92,0.00,,,0.00,meteohub,2017-05-25 04:23:00,
2017-05-25 00:28:00,57.7,55.8,29.52,NE,46,7.0,14.0,93,0.00,,,0.00,meteohub,2017-05-25 04:28:00,
2017-05-25 00:33:00,57.7,55.8,29.52,NNE,29,11.0,14.0,93,0.00,,,0.00,meteohub,2017-05-25 04:33:00,
2017-05-25 00:38:00,57.6,55.6,29.52,ENE,58,8.0,14.0,93,0.00,,,0.00,meteohub,2017-05-25 04:38:00,
2017-05-25 00:44:00,57.6,55.6,29.52,NNE,12,8.0,14.0,93,0.00,,,0.00,meteohub,2017-05-25 04:44:00,
2017-05-25 00:49:00,57.4,55.4,29.52,NNE,23,5.0,14.0,93,0.00,,,0.00,meteohub,2017-05-25 04:49:00,
2017-05-25 00:55:00,57.4,55.6,29.52,NNE,15,2.0,14.0,94,0.00,,,0.00,meteohub,2017-05-25 04:55:00,
2017-05-25 01:00:00,57.4,55.6,29.52,ENE,68,2.0,14.0,94,0.00,,,0.00,meteohub,2017-05-25 05:00:00,
2017-05-25 01:05:00,57.4,55.6,29.52,ENE,76,12.0,14.0,94,0.00,,,0.00,meteohub,2017-05-25 05:05:00,
2017-05-25 01:10:00,57.4,55.6,29.52,NE,34,8.0,14.0,94,0.00,,,0.01,meteohub,2017-05-25 05:10:00,
2017-05-25 01:15:00,57.2,55.4,29.51,ENE,75,4.0,14.0,94,0.00,,,0.01,meteohub,2017-05-25 05:15:00,
2017-05-25 01:21:00,57.2,55.4,29.52,NE,37,5.0,14.0,94,0.00,,,0.01,meteohub,2017-05-25 05:21:00,
2017-05-25 01:26:00,57.2,55.4,29.51,NE,37,5.0,14.0,94,0.01,,,0.01,meteohub,2017-05-25 05:26:00,
2017-05-25 01:31:00,57.0,55.2,29.52,NNW,334,8.0,17.0,94,0.01,,,0.01,meteohub,2017-05-25 05:31:00,
2017-05-25 01:36:00,57.0,55.2,29.51,NNE,29,4.0,17.0,94,0.01,,,0.01,meteohub,2017-05-25 05:36:00,
2017-05-25 01:42:00,57.0,55.2,29.51,ENE,65,7.0,17.0,94,0.01,,,0.01,meteohub,2017-05-25 05:42:00,
2017-05-25 01:47:00,57.0,55.2,29.51,NNE,26,6.0,17.0,94,0.01,,,0.01,meteohub,2017-05-25 05:47:00,
2017-05-25 01:52:00,57.0,55.2,29.51,NE,34,7.0,17.0,94,0.01,,,0.01,meteohub,2017-05-25 05:52:00,
2017-05-25 01:57:00,56.8,55.4,29.51,ENE,68,6.0,17.0,95,0.01,,,0.01,meteohub,2017-05-25 05:57:00,
2017-05-25 02:02:00,56.7,55.2,29.51,North,5,5.0,17.0,95,0.01,,,0.01,meteohub,2017-05-25 06:02:00,
2017-05-25 02:07:00,56.7,55.2,29.51,NNE,18,2.0,17.0,95,0.00,,,0.01,meteohub,2017-05-25 06:07:00,
2017-05-25 02:12:00,56.5,55.0,29.51,ENE,63,12.0,14.0,95,0.00,,,0.01,meteohub,2017-05-25 06:12:00,
2017-05-25 02:17:00,56.5,55.4,29.51,North,349,7.0,14.0,96,0.00,,,0.01,meteohub,2017-05-25 06:17:00,
2017-05-25 02:22:00,56.5,55.4,29.51,NE,34,7.0,14.0,96,0.00,,,0.01,meteohub,2017-05-25 06:22:00,
2017-05-25 02:27:00,56.3,55.2,29.51,NNE,23,1.0,14.0,96,0.00,,,0.01,meteohub,2017-05-25 06:27:00,
2017-05-25 02:32:00,56.3,55.2,29.50,NNW,330,5.0,14.0,96,0.00,,,0.03,meteohub,2017-05-25 06:32:00,
2017-05-25 02:38:00,56.1,55.0,29.50,NE,39,6.0,14.0,96,0.00,,,0.03,meteohub,2017-05-25 06:38:00,
2017-05-25 02:43:00,56.1,55.0,29.50,North,1,6.0,14.0,96,0.02,,,0.03,meteohub,2017-05-25 06:43:00,
2017-05-25 02:49:00,56.3,55.2,29.50,NE,50,11.0,13.0,96,0.02,,,0.03,meteohub,2017-05-25 06:49:00,
2017-05-25 02:54:00,56.1,55.0,29.50,NNE,12,6.0,13.0,96,0.02,,,0.03,meteohub,2017-05-25 06:54:00,
2017-05-25 02:59:00,56.1,55.0,29.50,NE,54,4.0,13.0,96,0.02,,,0.03,meteohub,2017-05-25 06:59:00,
2017-05-25 03:05:00,56.1,55.0,29.50,NNE,25,6.0,13.0,96,0.02,,,0.03,meteohub,2017-05-25 07:05:00,
2017-05-25 03:10:00,56.1,55.0,29.50,NE,54,2.0,13.0,96,0.02,,,0.03,meteohub,2017-05-25 07:10:00,
2017-05-25 03:15:00,56.1,55.0,29.50,ENE,63,6.0,13.0,96,0.02,,,0.03,meteohub,2017-05-25 07:15:00,
2017-05-25 03:21:00,55.9,54.9,29.50,North,358,8.0,13.0,96,0.02,,,0.03,meteohub,2017-05-25 07:21:00,
2017-05-25 03:26:00,55.9,54.9,29.50,North,9,5.0,13.0,96,0.02,,,0.03,meteohub,2017-05-25 07:26:00,
2017-05-25 03:31:00,55.9,55.0,29.50,NE,54,2.0,13.0,97,0.01,,,0.03,meteohub,2017-05-25 07:31:00,
2017-05-25 03:36:00,55.9,55.0,29.50,NE,44,4.0,9.0,97,0.01,,,0.03,meteohub,2017-05-25 07:36:00,
2017-05-25 03:42:00,55.9,55.0,29.50,North,11,3.0,9.0,97,0.01,,,0.03,meteohub,2017-05-25 07:42:00,
2017-05-25 03:47:00,55.9,55.0,29.50,NE,34,6.0,9.0,97,0.01,,,0.03,meteohub,2017-05-25 07:47:00,
2017-05-25 03:52:00,55.9,55.0,29.49,NE,39,8.0,9.0,97,0.01,,,0.04,meteohub,2017-05-25 07:52:00,
2017-05-25 03:57:00,55.9,55.0,29.49,NNE,23,10.0,10.0,97,0.01,,,0.04,meteohub,2017-05-25 07:57:00,
2017-05-25 04:02:00,55.9,55.0,29.49,NE,36,3.0,12.0,97,0.01,,,0.04,meteohub,2017-05-25 08:02:00,
2017-05-25 04:07:00,55.9,55.0,29.49,North,357,5.0,12.0,97,0.01,,,0.04,meteohub,2017-05-25 08:07:00,
2017-05-25 04:12:00,55.9,55.0,29.49,North,0,2.0,12.0,97,0.01,,,0.04,meteohub,2017-05-25 08:12:00,
2017-05-25 04:17:00,55.9,55.0,29.49,NE,53,9.0,12.0,97,0.01,,,0.04,meteohub,2017-05-25 08:17:00,
2017-05-25 04:22:00,55.9,55.0,29.49,NE,56,3.0,12.0,97,0.01,,,0.04,meteohub,2017-05-25 08:22:00,
2017-05-25 04:28:00,55.9,55.0,29.49,North,0,4.0,12.0,97,0.01,,,0.04,meteohub,2017-05-25 08:28:00,
2017-05-25 04:33:00,55.9,55.0,29.49,NE,47,7.0,12.0,97,0.01,,,0.04,meteohub,2017-05-25 08:33:00,
2017-05-25 04:39:00,56.1,55.2,29.49,North,358,6.0,12.0,97,0.01,,,0.04,meteohub,2017-05-25 08:39:00,
2017-05-25 04:44:00,56.1,55.2,29.49,NNW,348,7.0,11.0,97,0.00,,,0.04,meteohub,2017-05-25 08:44:00,
2017-05-25 04:49:00,56.1,55.2,29.49,NNE,15,9.0,11.0,97,0.00,,,0.04,meteohub,2017-05-25 08:49:00,
2017-05-25 04:54:00,56.1,55.2,29.49,NE,47,6.0,11.0,97,0.00,,,0.04,meteohub,2017-05-25 08:54:00,
2017-05-25 05:00:00,56.1,55.0,29.48,NE,53,8.0,11.0,96,0.00,,,0.04,meteohub,2017-05-25 09:00:00,
2017-05-25 05:05:00,56.3,55.2,29.48,NE,37,12.0,12.0,96,0.00,,,0.04,meteohub,2017-05-25 09:05:00,
2017-05-25 05:10:00,56.3,55.2,29.49,NE,48,4.0,11.0,96,0.00,,,0.04,meteohub,2017-05-25 09:10:00,
2017-05-25 05:15:00,56.3,55.2,29.49,NE,46,8.0,11.0,96,0.00,,,0.04,meteohub,2017-05-25 09:15:00,
2017-05-25 05:20:00,56.3,55.2,29.49,ENE,72,6.0,13.0,96,0.00,,,0.04,meteohub,2017-05-25 09:20:00,
2017-05-25 05:26:00,56.3,55.2,29.49,NE,54,6.0,13.0,96,0.00,,,0.04,meteohub,2017-05-25 09:26:00,
2017-05-25 05:31:00,56.5,55.4,29.49,NE,48,3.0,13.0,96,0.00,,,0.04,meteohub,2017-05-25 09:31:00,
2017-05-25 05:37:00,56.5,55.4,29.49,NE,53,5.0,13.0,96,0.00,,,0.04,meteohub,2017-05-25 09:37:00,
2017-05-25 05:42:00,56.5,55.4,29.49,ENE,72,8.0,13.0,96,0.00,,,0.04,meteohub,2017-05-25 09:42:00,
2017-05-25 05:47:00,56.5,55.4,29.49,ENE,66,3.0,13.0,96,0.00,,,0.04,meteohub,2017-05-25 09:47:00,
2017-05-25 05:52:00,56.5,55.4,29.50,NE,46,9.0,13.0,96,0.00,,,0.04,meteohub,2017-05-25 09:52:00,
2017-05-25 05:57:00,56.5,55.4,29.50,ENE,65,7.0,13.0,96,0.00,,,0.04,meteohub,2017-05-25 09:57:00,
2017-05-25 06:02:00,56.5,55.4,29.50,ENE,65,5.0,13.0,96,0.00,,,0.04,meteohub,2017-05-25 10:02:00,
2017-05-25 06:07:00,56.5,55.4,29.50,ENE,71,7.0,13.0,96,0.00,,,0.04,meteohub,2017-05-25 10:07:00,
2017-05-25 06:12:00,56.5,55.4,29.50,East,79,7.0,13.0,96,0.00,,,0.04,meteohub,2017-05-25 10:12:00,
2017-05-25 06:17:00,56.3,55.2,29.50,ENE,67,6.0,13.0,96,0.00,,,0.04,meteohub,2017-05-25 10:17:00,
2017-05-25 06:22:00,56.3,55.2,29.50,ENE,65,5.0,13.0,96,0.00,,,0.04,meteohub,2017-05-25 10:22:00,
2017-05-25 06:27:00,56.3,55.2,29.50,ENE,63,4.0,13.0,96,0.00,,,0.04,meteohub,2017-05-25 10:27:00,
2017-05-25 06:32:00,56.3,55.2,29.50,NE,53,13.0,14.0,96,0.00,,,0.04,meteohub,2017-05-25 10:32:00,
2017-05-25 06:37:00,56.3,55.2,29.50,NNE,15,0.0,14.0,96,0.00,,,0.04,meteohub,2017-05-25 10:37:00,
2017-05-25 06:42:00,56.3,55.2,29.51,NNE,26,5.0,14.0,96,0.00,,,0.04,meteohub,2017-05-25 10:42:00,
2017-05-25 06:47:00,56.3,55.2,29.51,NE,39,6.0,14.0,96,0.00,,,0.04,meteohub,2017-05-25 10:47:00,
2017-05-25 06:52:00,56.5,55.4,29.51,NNW,340,2.0,14.0,96,0.00,,,0.04,meteohub,2017-05-25 10:52:00,
2017-05-25 06:57:00,56.3,55.2,29.51,ENE,63,3.0,14.0,96,0.00,,,0.04,meteohub,2017-05-25 10:57:00,
2017-05-25 07:03:00,56.3,55.2,29.51,NNE,26,4.0,14.0,96,0.00,,,0.04,meteohub,2017-05-25 11:03:00,
2017-05-25 07:08:00,56.3,55.2,29.52,NE,54,2.0,14.0,96,0.00,,,0.04,meteohub,2017-05-25 11:08:00,
2017-05-25 07:13:00,56.3,55.2,29.52,NW,310,6.0,14.0,96,0.00,,,0.04,meteohub,2017-05-25 11:13:00,
2017-05-25 07:18:00,56.3,55.2,29.52,NNE,26,6.0,8.0,96,0.00,,,0.04,meteohub,2017-05-25 11:18:00,
2017-05-25 07:23:00,56.5,55.4,29.52,NNE,24,3.0,8.0,96,0.00,,,0.04,meteohub,2017-05-25 11:23:00,
2017-05-25 07:29:00,56.5,55.4,29.52,NNE,23,3.0,8.0,96,0.00,,,0.04,meteohub,2017-05-25 11:29:00,
2017-05-25 07:34:00,56.5,55.4,29.52,NE,34,7.0,8.0,96,0.00,,,0.04,meteohub,2017-05-25 11:34:00,
2017-05-25 07:39:00,56.5,55.4,29.52,NNE,20,2.0,8.0,96,0.00,,,0.04,meteohub,2017-05-25 11:39:00,
2017-05-25 07:45:00,56.3,55.2,29.52,ENE,74,1.0,8.0,96,0.00,,,0.04,meteohub,2017-05-25 11:45:00,
2017-05-25 07:50:00,56.5,55.4,29.52,NE,41,7.0,8.0,96,0.00,,,0.04,meteohub,2017-05-25 11:50:00,
2017-05-25 07:55:00,56.3,55.2,29.52,NNW,334,1.0,8.0,96,0.00,,,0.04,meteohub,2017-05-25 11:55:00,
2017-05-25 08:00:00,56.3,55.2,29.52,NE,56,5.0,8.0,96,0.00,,,0.04,meteohub,2017-05-25 12:00:00,
2017-05-25 08:05:00,56.3,55.2,29.52,NNE,28,6.0,8.0,96,0.00,,,0.04,meteohub,2017-05-25 12:05:00,
2017-05-25 08:10:00,56.3,55.2,29.52,NE,41,6.0,8.0,96,0.00,,,0.04,meteohub,2017-05-25 12:10:00,
2017-05-25 08:16:00,56.3,55.2,29.52,NE,47,3.0,8.0,96,0.00,,,0.04,meteohub,2017-05-25 12:16:00,
2017-05-25 08:21:00,56.3,55.2,29.52,North,0,2.0,8.0,96,0.00,,,0.04,meteohub,2017-05-25 12:21:00,
2017-05-25 08:26:00,56.3,55.2,29.52,NNE,33,5.0,8.0,96,0.00,,,0.04,meteohub,2017-05-25 12:26:00,
2017-05-25 08:32:00,56.1,55.0,29.52,ENE,60,3.0,8.0,96,0.00,,,0.04,meteohub,2017-05-25 12:32:00,
2017-05-25 08:37:00,56.1,55.0,29.52,NE,54,3.0,8.0,96,0.00,,,0.04,meteohub,2017-05-25 12:37:00,
2017-05-25 08:42:00,56.3,55.2,29.52,East,82,2.0,10.0,96,0.00,,,0.04,meteohub,2017-05-25 12:42:00,
2017-05-25 08:47:00,56.5,55.4,29.52,ENE,59,3.0,10.0,96,0.00,,,0.04,meteohub,2017-05-25 12:47:00,
2017-05-25 08:52:00,56.5,55.4,29.52,NE,48,3.0,10.0,96,0.00,,,0.04,meteohub,2017-05-25 12:52:00,
2017-05-25 08:57:00,56.7,55.6,29.52,NE,44,4.0,10.0,96,0.00,,,0.04,meteohub,2017-05-25 12:57:00,
2017-05-25 09:02:00,56.7,55.2,29.52,ENE,64,7.0,10.0,95,0.00,,,0.04,meteohub,2017-05-25 13:02:00,
2017-05-25 09:07:00,56.8,55.4,29.52,ENE,57,7.0,10.0,95,0.00,,,0.04,meteohub,2017-05-25 13:07:00,
2017-05-25 09:12:00,57.0,55.6,29.52,NNE,17,6.0,10.0,95,0.00,,,0.04,meteohub,2017-05-25 13:12:00,
2017-05-25 09:17:00,57.0,55.6,29.52,North,1,4.0,13.0,95,0.00,,,0.04,meteohub,2017-05-25 13:17:00,
2017-05-25 09:22:00,57.2,55.4,29.53,ENE,65,6.0,13.0,94,0.00,,,0.04,meteohub,2017-05-25 13:22:00,
2017-05-25 09:27:00,57.2,55.4,29.53,NE,39,4.0,13.0,94,0.00,,,0.04,meteohub,2017-05-25 13:27:00,
2017-05-25 09:32:00,57.4,55.6,29.53,NNE,23,6.0,13.0,94,0.00,,,0.04,meteohub,2017-05-25 13:32:00,
2017-05-25 09:37:00,57.4,55.6,29.53,North,353,9.0,13.0,94,0.00,,,0.04,meteohub,2017-05-25 13:37:00,
2017-05-25 09:42:00,57.4,55.6,29.54,North,1,4.0,13.0,94,0.00,,,0.04,meteohub,2017-05-25 13:42:00,
2017-05-25 09:47:00,57.6,55.8,29.54,NNE,26,6.0,13.0,94,0.00,,,0.04,meteohub,2017-05-25 13:47:00,
2017-05-25 09:52:00,57.6,55.8,29.54,NNE,20,4.0,12.0,94,0.00,,,0.04,meteohub,2017-05-25 13:52:00,
2017-05-25 09:57:00,57.6,55.8,29.54,North,355,3.0,12.0,94,0.00,,,0.04,meteohub,2017-05-25 13:57:00,
2017-05-25 10:02:00,57.6,55.8,29.54,NNW,335,2.0,12.0,94,0.00,,,0.04,meteohub,2017-05-25 14:02:00,
2017-05-25 10:08:00,57.7,55.9,29.54,North,5,4.0,12.0,94,0.00,,,0.04,meteohub,2017-05-25 14:08:00,
2017-05-25 10:13:00,57.7,55.8,29.54,NE,47,4.0,12.0,93,0.00,,,0.04,meteohub,2017-05-25 14:13:00,
2017-05-25 10:19:00,57.9,56.1,29.54,ENE,64,6.0,12.0,94,0.00,,,0.04,meteohub,2017-05-25 14:19:00,
2017-05-25 10:24:00,58.1,56.1,29.54,NE,37,8.0,12.0,93,0.00,,,0.04,meteohub,2017-05-25 14:24:00,
2017-05-25 10:29:00,58.5,56.5,29.54,NNW,340,2.0,11.0,93,0.00,,,0.04,meteohub,2017-05-25 14:29:00,
2017-05-25 10:34:00,58.5,56.5,29.54,NNE,20,4.0,11.0,93,0.00,,,0.04,meteohub,2017-05-25 14:34:00,
2017-05-25 10:40:00,58.5,56.1,29.54,NE,46,2.0,11.0,92,0.00,,,0.04,meteohub,2017-05-25 14:40:00,
2017-05-25 10:45:00,58.5,56.1,29.54,North,4,4.0,11.0,92,0.00,,,0.04,meteohub,2017-05-25 14:45:00,
2017-05-25 10:50:00,58.5,56.5,29.54,NE,39,0.0,11.0,93,0.00,,,0.04,meteohub,2017-05-25 14:50:00,
2017-05-25 10:55:00,58.6,56.3,29.54,North,0,4.0,11.0,92,0.00,,,0.04,meteohub,2017-05-25 14:55:00,
2017-05-25 11:01:00,58.6,56.3,29.54,NNW,332,2.0,10.0,92,0.00,,,0.04,meteohub,2017-05-25 15:01:00,
2017-05-25 11:06:00,58.8,56.5,29.54,North,352,6.0,10.0,92,0.00,,,0.04,meteohub,2017-05-25 15:06:00,
2017-05-25 11:11:00,58.8,56.5,29.54,ENE,59,1.0,10.0,92,0.00,,,0.04,meteohub,2017-05-25 15:11:00,
2017-05-25 11:17:00,59.0,56.7,29.54,NNW,336,5.0,10.0,92,0.00,,,0.04,meteohub,2017-05-25 15:17:00,
2017-05-25 11:22:00,58.8,56.5,29.54,NNE,29,2.0,10.0,92,0.00,,,0.04,meteohub,2017-05-25 15:22:00,
2017-05-25 11:27:00,58.8,56.5,29.54,North,359,4.0,10.0,92,0.00,,,0.04,meteohub,2017-05-25 15:27:00,
2017-05-25 11:32:00,58.8,56.5,29.54,NNW,338,5.0,10.0,92,0.00,,,0.04,meteohub,2017-05-25 15:32:00,
2017-05-25 11:37:00,59.0,56.3,29.54,North,353,7.0,11.0,91,0.00,,,0.04,meteohub,2017-05-25 15:37:00,
2017-05-25 11:42:00,59.2,56.5,29.54,NE,34,5.0,11.0,91,0.00,,,0.04,meteohub,2017-05-25 15:42:00,
2017-05-25 11:47:00,59.2,56.5,29.54,NNW,338,4.0,11.0,91,0.00,,,0.04,meteohub,2017-05-25 15:47:00,
2017-05-25 11:52:00,59.4,56.7,29.54,NW,324,6.0,11.0,91,0.00,,,0.04,meteohub,2017-05-25 15:52:00,
2017-05-25 11:57:00,59.4,56.5,29.54,NNW,334,7.0,11.0,90,0.00,,,0.04,meteohub,2017-05-25 15:57:00,
2017-05-25 12:02:00,59.5,56.8,29.55,NW,326,4.0,11.0,91,0.00,,,0.04,meteohub,2017-05-25 16:02:00,
2017-05-25 12:07:00,59.5,56.8,29.55,NNE,26,6.0,11.0,91,0.00,,,0.04,meteohub,2017-05-25 16:07:00,
2017-05-25 12:12:00,59.5,56.7,29.55,East,86,5.0,12.0,90,0.00,,,0.04,meteohub,2017-05-25 16:12:00,
2017-05-25 12:17:00,59.5,56.7,29.56,NNE,28,5.0,12.0,90,0.00,,,0.04,meteohub,2017-05-25 16:17:00,
2017-05-25 12:22:00,59.7,56.8,29.55,NW,320,3.0,12.0,90,0.00,,,0.04,meteohub,2017-05-25 16:22:00,
2017-05-25 12:27:00,60.1,57.2,29.56,NNW,340,3.0,12.0,90,0.00,,,0.04,meteohub,2017-05-25 16:27:00,
2017-05-25 12:32:00,60.3,57.0,29.56,NNW,339,1.0,12.0,89,0.00,,,0.04,meteohub,2017-05-25 16:32:00,
2017-05-25 12:37:00,60.3,57.0,29.56,NW,314,2.0,12.0,89,0.00,,,0.04,meteohub,2017-05-25 16:37:00,
2017-05-25 12:42:00,60.3,57.0,29.56,NNW,338,4.0,12.0,89,0.00,,,0.04,meteohub,2017-05-25 16:42:00,
2017-05-25 12:47:00,60.3,57.0,29.56,NNE,15,6.0,12.0,89,0.00,,,0.04,meteohub,2017-05-25 16:47:00,
2017-05-25 12:52:00,60.3,57.0,29.56,ENE,68,3.0,12.0,89,0.00,,,0.04,meteohub,2017-05-25 16:52:00,
2017-05-25 12:57:00,60.4,57.2,29.56,ENE,63,0.0,8.0,89,0.00,,,0.04,meteohub,2017-05-25 16:57:00,
2017-05-25 13:02:00,60.8,57.6,29.56,NE,40,6.0,8.0,89,0.00,,,0.04,meteohub,2017-05-25 17:02:00,
2017-05-25 13:03:00,61.0,57.4,29.56,NE,43,4.0,8.0,88,0.00,,,0.04,meteohub,2017-05-25 17:03:00,
2017-05-25 13:08:00,61.2,57.6,29.56,NNE,23,5.0,8.0,88,0.00,,,0.04,meteohub,2017-05-25 17:08:00,
2017-05-25 13:13:00,61.3,57.7,29.56,NW,311,2.0,8.0,88,0.00,,,0.04,meteohub,2017-05-25 17:13:00,
2017-05-25 13:19:00,61.3,57.2,29.56,NNE,18,6.0,8.0,86,0.00,,,0.04,meteohub,2017-05-25 17:19:00,
2017-05-25 13:24:00,61.5,57.6,29.56,North,358,3.0,8.0,87,0.00,,,0.04,meteohub,2017-05-25 17:24:00,
2017-05-25 13:29:00,61.5,57.4,29.56,NE,36,2.0,8.0,86,0.00,,,0.04,meteohub,2017-05-25 17:29:00,
2017-05-25 13:34:00,62.1,57.7,29.56,NNW,332,2.0,8.0,86,0.00,,,0.04,meteohub,2017-05-25 17:34:00,
2017-05-25 13:39:00,62.8,58.5,29.56,NE,51,5.0,8.0,86,0.00,,,0.04,meteohub,2017-05-25 17:39:00,
2017-05-25 13:44:00,63.0,58.5,29.56,WNW,293,3.0,8.0,85,0.00,,,0.04,meteohub,2017-05-25 17:44:00,
2017-05-25 13:50:00,63.5,58.6,29.56,NNW,345,5.0,8.0,84,0.00,,,0.04,meteohub,2017-05-25 17:50:00,
2017-05-25 13:55:00,63.3,58.1,29.55,NNE,18,7.0,8.0,83,0.00,,,0.04,meteohub,2017-05-25 17:55:00,
2017-05-25 14:00:00,63.1,57.9,29.56,NNW,343,5.0,8.0,83,0.00,,,0.04,meteohub,2017-05-25 18:00:00,
2017-05-25 14:05:00,62.8,57.6,29.56,North,11,5.0,8.0,83,0.00,,,0.04,meteohub,2017-05-25 18:05:00,
2017-05-25 14:10:00,62.6,57.7,29.56,NE,54,5.0,8.0,84,0.00,,,0.04,meteohub,2017-05-25 18:10:00,
2017-05-25 14:15:00,62.4,57.6,29.56,NE,41,5.0,8.0,84,0.00,,,0.04,meteohub,2017-05-25 18:15:00,
2017-05-25 14:21:00,62.6,58.1,29.56,NNE,32,3.0,8.0,85,0.00,,,0.04,meteohub,2017-05-25 18:21:00,
2017-05-25 14:26:00,63.1,59.2,29.56,NW,321,1.0,6.0,87,0.00,,,0.04,meteohub,2017-05-25 18:26:00,
2017-05-25 14:31:00,63.7,58.5,29.56,East,98,3.0,6.0,83,0.00,,,0.04,meteohub,2017-05-25 18:31:00,
2017-05-25 14:37:00,63.9,57.9,29.56,NW,326,4.0,6.0,81,0.00,,,0.04,meteohub,2017-05-25 18:37:00,
2017-05-25 14:42:00,64.0,58.1,29.56,NNE,17,0.0,6.0,81,0.00,,,0.04,meteohub,2017-05-25 18:42:00,
2017-05-25 14:47:00,64.0,58.5,29.56,NNE,20,1.0,6.0,82,0.00,,,0.04,meteohub,2017-05-25 18:47:00,
2017-05-25 14:52:00,63.9,57.9,29.55,NW,311,8.0,8.0,81,0.00,,,0.04,meteohub,2017-05-25 18:52:00,
2017-05-25 14:57:00,63.5,57.6,29.56,NNW,329,2.0,6.0,81,0.00,,,0.04,meteohub,2017-05-25 18:57:00,
2017-05-25 15:02:00,63.3,57.4,29.56,NNE,32,2.0,11.0,81,0.00,,,0.04,meteohub,2017-05-25 19:02:00,
2017-05-25 15:07:00,63.3,57.7,29.56,NNW,334,3.0,11.0,82,0.00,,,0.04,meteohub,2017-05-25 19:07:00,
2017-05-25 15:12:00,63.7,57.7,29.56,North,351,5.0,11.0,81,0.00,,,0.04,meteohub,2017-05-25 19:12:00,
2017-05-25 15:17:00,64.2,58.3,29.56,North,8,2.0,11.0,81,0.00,,,0.04,meteohub,2017-05-25 19:17:00,
2017-05-25 15:23:00,64.9,59.4,29.55,WNW,298,4.0,11.0,82,0.00,,,0.04,meteohub,2017-05-25 19:23:00,
2017-05-25 15:28:00,65.3,57.9,29.55,NE,56,0.0,11.0,77,0.00,,,0.04,meteohub,2017-05-25 19:28:00,
2017-05-25 15:34:00,65.1,58.1,29.55,NW,316,4.0,11.0,78,0.00,,,0.04,meteohub,2017-05-25 19:34:00,
2017-05-25 15:39:00,65.1,58.1,29.55,NNW,332,5.0,10.0,78,0.00,,,0.04,meteohub,2017-05-25 19:39:00,
2017-05-25 15:44:00,64.9,57.9,29.55,NNW,345,4.0,10.0,78,0.00,,,0.04,meteohub,2017-05-25 19:44:00,
2017-05-25 15:49:00,64.9,57.9,29.56,NNW,332,3.0,10.0,78,0.00,,,0.04,meteohub,2017-05-25 19:49:00,
2017-05-25 15:55:00,64.9,58.3,29.56,WNW,301,6.0,10.0,79,0.00,,,0.04,meteohub,2017-05-25 19:55:00,
2017-05-25 16:00:00,64.9,57.9,29.55,NNW,339,1.0,10.0,78,0.00,,,0.04,meteohub,2017-05-25 20:00:00,
2017-05-25 16:05:00,64.9,57.9,29.55,NW,326,1.0,10.0,78,0.00,,,0.04,meteohub,2017-05-25 20:05:00,
2017-05-25 16:10:00,64.9,58.3,29.55,WSW,248,3.0,10.0,79,0.00,,,0.04,meteohub,2017-05-25 20:10:00,
2017-05-25 16:15:00,65.1,58.1,29.55,NNW,328,3.0,7.0,78,0.00,,,0.04,meteohub,2017-05-25 20:15:00,
2017-05-25 16:21:00,65.7,58.3,29.55,NE,39,5.0,7.0,77,0.00,,,0.04,meteohub,2017-05-25 20:21:00,
2017-05-25 16:25:00,65.8,57.7,29.55,NNW,345,8.0,8.0,75,0.00,,,0.04,meteohub,2017-05-25 20:25:00,
2017-05-25 16:30:00,65.7,57.9,29.55,NNW,338,4.0,7.0,76,0.00,,,0.04,meteohub,2017-05-25 20:30:00,
2017-05-25 16:36:00,65.7,57.9,29.55,NW,322,9.0,9.0,76,0.00,,,0.04,meteohub,2017-05-25 20:36:00,
2017-05-25 16:41:00,65.7,57.9,29.55,WNW,290,6.0,7.0,76,0.00,,,0.04,meteohub,2017-05-25 20:41:00,
2017-05-25 16:46:00,65.7,57.9,29.55,NW,320,6.0,11.0,76,0.00,,,0.04,meteohub,2017-05-25 20:46:00,
2017-05-25 16:52:00,65.5,58.1,29.55,NNW,335,2.0,11.0,77,0.00,,,0.04,meteohub,2017-05-25 20:52:00,
2017-05-25 16:57:00,65.1,57.7,29.56,North,8,5.0,11.0,77,0.00,,,0.04,meteohub,2017-05-25 20:57:00,
2017-05-25 17:02:00,64.9,57.9,29.56,WNW,284,3.0,11.0,78,0.00,,,0.04,meteohub,2017-05-25 21:02:00,
2017-05-25 17:07:00,64.9,57.9,29.56,NNW,334,3.0,11.0,78,0.00,,,0.04,meteohub,2017-05-25 21:07:00,
2017-05-25 17:12:00,64.9,57.6,29.56,WNW,297,7.0,11.0,77,0.00,,,0.04,meteohub,2017-05-25 21:12:00,
2017-05-25 17:17:00,65.1,57.7,29.56,NW,316,3.0,11.0,77,0.00,,,0.04,meteohub,2017-05-25 21:17:00,
2017-05-25 17:23:00,65.3,58.3,29.56,WNW,301,4.0,10.0,78,0.00,,,0.04,meteohub,2017-05-25 21:23:00,